Stockdale, Pennsylvania
Current Conditions -  °F | °C
As of 7:53 PM on Tuesday 21 Oct 2014 (Local Time) from KAGC Reporting Station
Overcast Overcast  
Wind Chill: 44°   Ceiling: 1100
Heat Index: 48°   Visibility: 10mi
Dew Point: 42°   Wind: 8mph
Humidity: 80%   Direction: 320°NW
Pressure: 29.97"   Gusts: NA
Location:  40.08°N, 79.85°W
Report Text: KAGC 212353Z AUTO 32007KT 10SM OVC011 09/06 A2997 RMK AO2 SLP155 60001 T00890056 10128 20089 51020 TSNO
Loading
Personal Weather Stations






























Interactive Weather Map
Tropical Storm Tracking
New forecast layout! Learn more

10-Day Weather Forecast

Advertisements
Track Severe Weather on mobile